sensor_id;sensor_type;location;lat;lon;timestamp;P1;durP1;ratioP1;P2;durP2;ratioP2
22186;SDS011;11259;52.146;12.844;2023-08-06T00:01:10;1.30;;;1.20;;
22186;SDS011;11259;52.146;12.844;2023-08-06T00:03:35;1.63;;;1.17;;
22186;SDS011;11259;52.146;12.844;2023-08-06T00:06:01;2.30;;;1.88;;
22186;SDS011;11259;52.146;12.844;2023-08-06T00:08:26;2.08;;;1.40;;
22186;SDS011;11259;52.146;12.844;2023-08-06T00:10:51;2.25;;;1.35;;
22186;SDS011;11259;52.146;12.844;2023-08-06T00:13:17;1.42;;;1.33;;
22186;SDS011;11259;52.146;12.844;2023-08-06T00:15:44;2.25;;;1.85;;
22186;SDS011;11259;52.146;12.844;2023-08-06T00:18:09;1.73;;;1.50;;
22186;SDS011;11259;52.146;12.844;2023-08-06T00:20:34;1.88;;;1.50;;
22186;SDS011;11259;52.146;12.844;2023-08-06T00:23:00;2.80;;;1.83;;
22186;SDS011;11259;52.146;12.844;2023-08-06T00:25:25;2.10;;;1.73;;
22186;SDS011;11259;52.146;12.844;2023-08-06T00:27:50;5.50;;;1.98;;
22186;SDS011;11259;52.146;12.844;2023-08-06T00:30:16;1.48;;;1.38;;
22186;SDS011;11259;52.146;12.844;2023-08-06T00:32:42;1.70;;;1.60;;
22186;SDS011;11259;52.146;12.844;2023-08-06T00:35:08;2.33;;;1.45;;
22186;SDS011;11259;52.146;12.844;2023-08-06T00:37:33;3.03;;;2.10;;
22186;SDS011;11259;52.146;12.844;2023-08-06T00:39:59;2.83;;;2.08;;
22186;SDS011;11259;52.146;12.844;2023-08-06T00:42:24;2.10;;;1.65;;
22186;SDS011;11259;52.146;12.844;2023-08-06T00:44:49;3.53;;;2.33;;
22186;SDS011;11259;52.146;12.844;2023-08-06T00:47:15;1.65;;;1.55;;
22186;SDS011;11259;52.146;12.844;2023-08-06T00:49:41;2.33;;;1.90;;
22186;SDS011;11259;52.146;12.844;2023-08-06T00:52:07;2.60;;;2.08;;
22186;SDS011;11259;52.146;12.844;2023-08-06T00:54:33;1.50;;;1.40;;
22186;SDS011;11259;52.146;12.844;2023-08-06T00:56:59;1.75;;;1.55;;
22186;SDS011;11259;52.146;12.844;2023-08-06T00:59:26;2.25;;;1.42;;
22186;SDS011;11259;52.146;12.844;2023-08-06T01:01:51;1.90;;;1.73;;
22186;SDS011;11259;52.146;12.844;2023-08-06T01:04:17;2.65;;;1.70;;
22186;SDS011;11259;52.146;12.844;2023-08-06T01:06:44;3.05;;;1.73;;
22186;SDS011;11259;52.146;12.844;2023-08-06T01:09:15;5.20;;;2.03;;
22186;SDS011;11259;52.146;12.844;2023-08-06T01:11:50;2.35;;;1.83;;
22186;SDS011;11259;52.146;12.844;2023-08-06T01:14:23;1.65;;;1.45;;
22186;SDS011;11259;52.146;12.844;2023-08-06T01:16:53;1.45;;;1.35;;
22186;SDS011;11259;52.146;12.844;2023-08-06T01:19:20;2.53;;;2.22;;
22186;SDS011;11259;52.146;12.844;2023-08-06T01:21:47;2.25;;;1.40;;
22186;SDS011;11259;52.146;12.844;2023-08-06T01:24:12;1.42;;;1.33;;
22186;SDS011;11259;52.146;12.844;2023-08-06T01:26:39;2.10;;;1.40;;
22186;SDS011;11259;52.146;12.844;2023-08-06T01:29:08;2.20;;;1.77;;
22186;SDS011;11259;52.146;12.844;2023-08-06T01:31:37;2.15;;;1.48;;
22186;SDS011;11259;52.146;12.844;2023-08-06T01:34:03;2.40;;;1.50;;
22186;SDS011;11259;52.146;12.844;2023-08-06T01:36:30;1.70;;;1.60;;
22186;SDS011;11259;52.146;12.844;2023-08-06T01:38:57;1.75;;;1.50;;
22186;SDS011;11259;52.146;12.844;2023-08-06T01:41:22;2.17;;;1.55;;
22186;SDS011;11259;52.146;12.844;2023-08-06T01:43:48;1.75;;;1.52;;
22186;SDS011;11259;52.146;12.844;2023-08-06T01:46:13;1.70;;;1.50;;
22186;SDS011;11259;52.146;12.844;2023-08-06T01:48:38;2.30;;;1.95;;
22186;SDS011;11259;52.146;12.844;2023-08-06T01:51:04;1.95;;;1.70;;
22186;SDS011;11259;52.146;12.844;2023-08-06T01:53:29;1.75;;;1.33;;
22186;SDS011;11259;52.146;12.844;2023-08-06T01:55:56;1.65;;;1.55;;
22186;SDS011;11259;52.146;12.844;2023-08-06T01:58:21;2.45;;;1.75;;
22186;SDS011;11259;52.146;12.844;2023-08-06T02:00:46;3.10;;;1.52;;
22186;SDS011;11259;52.146;12.844;2023-08-06T02:03:12;2.22;;;1.58;;
22186;SDS011;11259;52.146;12.844;2023-08-06T02:05:37;1.80;;;1.70;;
22186;SDS011;11259;52.146;12.844;2023-08-06T02:08:02;2.75;;;1.90;;
22186;SDS011;11259;52.146;12.844;2023-08-06T02:10:28;1.92;;;1.60;;
22186;SDS011;11259;52.146;12.844;2023-08-06T02:12:54;1.58;;;1.30;;
22186;SDS011;11259;52.146;12.844;2023-08-06T02:15:20;3.13;;;2.22;;
22186;SDS011;11259;52.146;12.844;2023-08-06T02:17:45;2.80;;;1.70;;
22186;SDS011;11259;52.146;12.844;2023-08-06T02:20:11;1.70;;;1.40;;
22186;SDS011;11259;52.146;12.844;2023-08-06T02:22:36;2.60;;;1.65;;
22186;SDS011;11259;52.146;12.844;2023-08-06T02:25:01;2.40;;;1.90;;
22186;SDS011;11259;52.146;12.844;2023-08-06T02:27:27;2.15;;;1.95;;
22186;SDS011;11259;52.146;12.844;2023-08-06T02:29:53;2.10;;;1.55;;
22186;SDS011;11259;52.146;12.844;2023-08-06T02:32:19;5.18;;;1.90;;
22186;SDS011;11259;52.146;12.844;2023-08-06T02:34:44;1.48;;;1.38;;
22186;SDS011;11259;52.146;12.844;2023-08-06T02:37:09;2.45;;;1.73;;
22186;SDS011;11259;52.146;12.844;2023-08-06T02:39:35;1.80;;;1.70;;
22186;SDS011;11259;52.146;12.844;2023-08-06T02:42:00;5.13;;;1.45;;
22186;SDS011;11259;52.146;12.844;2023-08-06T02:44:26;2.40;;;1.50;;
22186;SDS011;11259;52.146;12.844;2023-08-06T02:46:53;2.42;;;1.73;;
22186;SDS011;11259;52.146;12.844;2023-08-06T02:49:18;2.00;;;1.80;;
22186;SDS011;11259;52.146;12.844;2023-08-06T02:51:44;2.00;;;1.73;;
22186;SDS011;11259;52.146;12.844;2023-08-06T02:54:10;2.83;;;2.38;;
22186;SDS011;11259;52.146;12.844;2023-08-06T02:56:35;2.15;;;1.80;;
22186;SDS011;11259;52.146;12.844;2023-08-06T02:59:00;1.83;;;1.60;;
22186;SDS011;11259;52.146;12.844;2023-08-06T03:01:26;2.75;;;1.88;;
22186;SDS011;11259;52.146;12.844;2023-08-06T03:03:52;2.95;;;1.67;;
22186;SDS011;11259;52.146;12.844;2023-08-06T03:06:17;1.55;;;1.45;;
22186;SDS011;11259;52.146;12.844;2023-08-06T03:08:43;2.25;;;1.90;;
22186;SDS011;11259;52.146;12.844;2023-08-06T03:11:08;2.00;;;1.77;;
22186;SDS011;11259;52.146;12.844;2023-08-06T03:13:33;2.95;;;2.00;;
22186;SDS011;11259;52.146;12.844;2023-08-06T03:15:59;2.40;;;2.20;;
22186;SDS011;11259;52.146;12.844;2023-08-06T03:18:24;2.83;;;2.38;;
22186;SDS011;11259;52.146;12.844;2023-08-06T03:20:51;2.08;;;1.88;;
22186;SDS011;11259;52.146;12.844;2023-08-06T03:23:17;2.42;;;1.98;;
22186;SDS011;11259;52.146;12.844;2023-08-06T03:25:42;2.00;;;1.73;;
22186;SDS011;11259;52.146;12.844;2023-08-06T03:28:08;2.15;;;1.70;;
22186;SDS011;11259;52.146;12.844;2023-08-06T03:30:33;1.45;;;1.35;;
22186;SDS011;11259;52.146;12.844;2023-08-06T03:32:58;2.45;;;1.90;;
22186;SDS011;11259;52.146;12.844;2023-08-06T03:35:24;3.80;;;2.20;;
22186;SDS011;11259;52.146;12.844;2023-08-06T03:37:50;1.75;;;1.65;;
22186;SDS011;11259;52.146;12.844;2023-08-06T03:40:16;2.00;;;1.85;;
22186;SDS011;11259;52.146;12.844;2023-08-06T03:42:41;2.35;;;1.70;;
22186;SDS011;11259;52.146;12.844;2023-08-06T03:45:07;2.40;;;1.73;;
22186;SDS011;11259;52.146;12.844;2023-08-06T03:47:33;2.33;;;1.92;;
22186;SDS011;11259;52.146;12.844;2023-08-06T03:49:58;1.55;;;1.42;;
22186;SDS011;11259;52.146;12.844;2023-08-06T03:52:23;3.00;;;1.85;;
22186;SDS011;11259;52.146;12.844;2023-08-06T03:54:50;5.32;;;2.13;;
22186;SDS011;11259;52.146;12.844;2023-08-06T03:57:15;2.47;;;1.98;;
22186;SDS011;11259;52.146;12.844;2023-08-06T03:59:41;7.82;;;2.22;;
22186;SDS011;11259;52.146;12.844;2023-08-06T04:02:06;1.92;;;1.50;;
22186;SDS011;11259;52.146;12.844;2023-08-06T04:04:31;2.40;;;1.83;;
22186;SDS011;11259;52.146;12.844;2023-08-06T04:06:57;2.03;;;1.70;;
22186;SDS011;11259;52.146;12.844;2023-08-06T04:09:22;2.88;;;2.05;;
22186;SDS011;11259;52.146;12.844;2023-08-06T04:11:49;1.85;;;1.65;;
22186;SDS011;11259;52.146;12.844;2023-08-06T04:14:14;2.05;;;1.83;;
22186;SDS011;11259;52.146;12.844;2023-08-06T04:16:39;2.88;;;2.33;;
22186;SDS011;11259;52.146;12.844;2023-08-06T04:19:05;1.98;;;1.77;;
22186;SDS011;11259;52.146;12.844;2023-08-06T04:21:30;3.05;;;2.30;;
22186;SDS011;11259;52.146;12.844;2023-08-06T04:23:55;2.17;;;1.98;;
22186;SDS011;11259;52.146;12.844;2023-08-06T04:26:21;2.67;;;2.22;;
22186;SDS011;11259;52.146;12.844;2023-08-06T04:28:47;2.55;;;2.22;;
22186;SDS011;11259;52.146;12.844;2023-08-06T04:31:13;3.92;;;2.05;;
22186;SDS011;11259;52.146;12.844;2023-08-06T04:33:38;2.40;;;2.20;;
22186;SDS011;11259;52.146;12.844;2023-08-06T04:36:03;2.60;;;1.77;;
22186;SDS011;11259;52.146;12.844;2023-08-06T04:38:29;2.55;;;1.88;;
22186;SDS011;11259;52.146;12.844;2023-08-06T04:40:54;2.92;;;2.13;;
22186;SDS011;11259;52.146;12.844;2023-08-06T04:43:19;3.15;;;2.60;;
22186;SDS011;11259;52.146;12.844;2023-08-06T04:45:47;2.75;;;2.05;;
22186;SDS011;11259;52.146;12.844;2023-08-06T04:48:12;2.90;;;2.35;;
22186;SDS011;11259;52.146;12.844;2023-08-06T04:50:37;2.25;;;2.05;;
22186;SDS011;11259;52.146;12.844;2023-08-06T04:53:03;2.13;;;1.60;;
22186;SDS011;11259;52.146;12.844;2023-08-06T04:55:28;3.25;;;2.28;;
22186;SDS011;11259;52.146;12.844;2023-08-06T04:57:53;3.08;;;2.70;;
22186;SDS011;11259;52.146;12.844;2023-08-06T05:00:19;2.53;;;2.33;;
22186;SDS011;11259;52.146;12.844;2023-08-06T05:02:45;4.35;;;2.70;;
22186;SDS011;11259;52.146;12.844;2023-08-06T05:05:10;3.83;;;2.55;;
22186;SDS011;11259;52.146;12.844;2023-08-06T05:07:36;4.25;;;2.90;;
22186;SDS011;11259;52.146;12.844;2023-08-06T05:10:01;3.20;;;2.45;;
22186;SDS011;11259;52.146;12.844;2023-08-06T05:12:27;2.53;;;2.17;;
22186;SDS011;11259;52.146;12.844;2023-08-06T05:14:52;3.22;;;2.92;;
22186;SDS011;11259;52.146;12.844;2023-08-06T05:17:17;2.45;;;2.25;;
22186;SDS011;11259;52.146;12.844;2023-08-06T05:19:44;5.90;;;2.85;;
22186;SDS011;11259;52.146;12.844;2023-08-06T05:22:09;3.05;;;2.38;;
22186;SDS011;11259;52.146;12.844;2023-08-06T05:24:35;3.20;;;2.10;;
22186;SDS011;11259;52.146;12.844;2023-08-06T05:27:00;3.50;;;2.53;;
22186;SDS011;11259;52.146;12.844;2023-08-06T05:29:25;3.03;;;2.28;;
22186;SDS011;11259;52.146;12.844;2023-08-06T05:31:51;3.95;;;2.47;;
22186;SDS011;11259;52.146;12.844;2023-08-06T05:34:16;3.42;;;2.50;;
22186;SDS011;11259;52.146;12.844;2023-08-06T05:36:43;3.20;;;2.40;;
22186;SDS011;11259;52.146;12.844;2023-08-06T05:39:08;3.67;;;3.13;;
22186;SDS011;11259;52.146;12.844;2023-08-06T05:41:33;3.38;;;2.72;;
22186;SDS011;11259;52.146;12.844;2023-08-06T05:43:59;3.00;;;2.45;;
22186;SDS011;11259;52.146;12.844;2023-08-06T05:46:24;2.47;;;2.03;;
22186;SDS011;11259;52.146;12.844;2023-08-06T05:48:49;3.30;;;2.53;;
22186;SDS011;11259;52.146;12.844;2023-08-06T05:51:15;3.42;;;2.42;;
22186;SDS011;11259;52.146;12.844;2023-08-06T05:53:41;4.00;;;2.55;;
22186;SDS011;11259;52.146;12.844;2023-08-06T05:56:07;4.30;;;2.65;;
22186;SDS011;11259;52.146;12.844;2023-08-06T05:58:32;3.50;;;2.63;;
22186;SDS011;11259;52.146;12.844;2023-08-06T06:00:57;3.33;;;2.58;;
22186;SDS011;11259;52.146;12.844;2023-08-06T06:03:23;4.07;;;2.75;;
22186;SDS011;11259;52.146;12.844;2023-08-06T06:05:48;2.75;;;2.17;;
22186;SDS011;11259;52.146;12.844;2023-08-06T06:08:13;3.35;;;2.38;;
22186;SDS011;11259;52.146;12.844;2023-08-06T06:10:40;2.22;;;1.95;;
22186;SDS011;11259;52.146;12.844;2023-08-06T06:13:06;3.05;;;2.60;;
22186;SDS011;11259;52.146;12.844;2023-08-06T06:15:31;4.28;;;2.58;;
22186;SDS011;11259;52.146;12.844;2023-08-06T06:17:56;3.38;;;2.40;;
22186;SDS011;11259;52.146;12.844;2023-08-06T06:20:22;2.10;;;1.95;;
22186;SDS011;11259;52.146;12.844;2023-08-06T06:22:47;3.60;;;2.58;;
22186;SDS011;11259;52.146;12.844;2023-08-06T06:25:12;3.42;;;2.40;;
22186;SDS011;11259;52.146;12.844;2023-08-06T06:27:39;3.38;;;2.10;;
22186;SDS011;11259;52.146;12.844;2023-08-06T06:30:05;4.13;;;2.45;;
22186;SDS011;11259;52.146;12.844;2023-08-06T06:32:31;3.97;;;2.08;;
22186;SDS011;11259;52.146;12.844;2023-08-06T06:34:57;2.53;;;1.95;;
22186;SDS011;11259;52.146;12.844;2023-08-06T06:37:22;3.75;;;2.42;;
22186;SDS011;11259;52.146;12.844;2023-08-06T06:39:47;2.55;;;2.20;;
22186;SDS011;11259;52.146;12.844;2023-08-06T06:42:13;2.95;;;2.65;;
22186;SDS011;11259;52.146;12.844;2023-08-06T06:44:39;3.38;;;2.35;;
22186;SDS011;11259;52.146;12.844;2023-08-06T06:47:05;4.78;;;2.45;;
22186;SDS011;11259;52.146;12.844;2023-08-06T06:49:30;3.80;;;2.90;;
22186;SDS011;11259;52.146;12.844;2023-08-06T06:51:55;2.95;;;2.47;;
22186;SDS011;11259;52.146;12.844;2023-08-06T06:54:21;5.80;;;2.17;;
22186;SDS011;11259;52.146;12.844;2023-08-06T06:56:46;2.50;;;2.25;;
22186;SDS011;11259;52.146;12.844;2023-08-06T06:59:11;2.65;;;2.40;;
22186;SDS011;11259;52.146;12.844;2023-08-06T07:01:38;4.18;;;2.88;;
22186;SDS011;11259;52.146;12.844;2023-08-06T07:04:03;4.22;;;2.55;;
22186;SDS011;11259;52.146;12.844;2023-08-06T07:06:29;3.70;;;2.72;;
22186;SDS011;11259;52.146;12.844;2023-08-06T07:08:54;3.63;;;2.92;;
22186;SDS011;11259;52.146;12.844;2023-08-06T07:11:19;3.00;;;2.22;;
22186;SDS011;11259;52.146;12.844;2023-08-06T07:13:45;3.40;;;2.35;;
22186;SDS011;11259;52.146;12.844;2023-08-06T07:16:10;3.20;;;2.63;;
22186;SDS011;11259;52.146;12.844;2023-08-06T07:18:37;2.83;;;2.10;;
22186;SDS011;11259;52.146;12.844;2023-08-06T07:21:02;2.78;;;2.13;;
22186;SDS011;11259;52.146;12.844;2023-08-06T07:23:27;2.90;;;2.33;;
22186;SDS011;11259;52.146;12.844;2023-08-06T07:25:53;2.55;;;2.25;;
22186;SDS011;11259;52.146;12.844;2023-08-06T07:28:18;3.30;;;2.35;;
22186;SDS011;11259;52.146;12.844;2023-08-06T07:30:44;2.78;;;2.40;;
22186;SDS011;11259;52.146;12.844;2023-08-06T07:33:09;5.05;;;2.15;;
22186;SDS011;11259;52.146;12.844;2023-08-06T07:35:37;2.10;;;1.90;;
22186;SDS011;11259;52.146;12.844;2023-08-06T07:38:03;3.38;;;2.35;;
22186;SDS011;11259;52.146;12.844;2023-08-06T07:40:28;3.95;;;2.83;;
22186;SDS011;11259;52.146;12.844;2023-08-06T07:42:53;4.40;;;2.72;;
22186;SDS011;11259;52.146;12.844;2023-08-06T07:45:19;2.95;;;2.05;;
22186;SDS011;11259;52.146;12.844;2023-08-06T07:47:44;2.47;;;2.08;;
22186;SDS011;11259;52.146;12.844;2023-08-06T07:50:09;3.80;;;2.70;;
22186;SDS011;11259;52.146;12.844;2023-08-06T07:52:36;5.95;;;3.08;;
22186;SDS011;11259;52.146;12.844;2023-08-06T07:55:02;2.33;;;2.13;;
22186;SDS011;11259;52.146;12.844;2023-08-06T07:57:27;2.97;;;2.10;;
22186;SDS011;11259;52.146;12.844;2023-08-06T07:59:52;2.40;;;1.85;;
22186;SDS011;11259;52.146;12.844;2023-08-06T08:02:18;2.67;;;2.17;;
22186;SDS011;11259;52.146;12.844;2023-08-06T08:04:43;2.35;;;2.15;;
22186;SDS011;11259;52.146;12.844;2023-08-06T08:07:09;3.13;;;2.15;;
22186;SDS011;11259;52.146;12.844;2023-08-06T08:09:36;4.38;;;2.53;;
22186;SDS011;11259;52.146;12.844;2023-08-06T08:12:01;2.80;;;1.80;;
22186;SDS011;11259;52.146;12.844;2023-08-06T08:14:27;2.20;;;2.00;;
22186;SDS011;11259;52.146;12.844;2023-08-06T08:16:52;2.63;;;2.25;;
22186;SDS011;11259;52.146;12.844;2023-08-06T08:19:18;2.30;;;1.77;;
22186;SDS011;11259;52.146;12.844;2023-08-06T08:21:43;2.17;;;1.98;;
22186;SDS011;11259;52.146;12.844;2023-08-06T08:24:08;2.08;;;1.73;;
22186;SDS011;11259;52.146;12.844;2023-08-06T08:26:35;2.88;;;1.75;;
22186;SDS011;11259;52.146;12.844;2023-08-06T08:29:00;2.05;;;1.70;;
22186;SDS011;11259;52.146;12.844;2023-08-06T08:31:26;2.38;;;1.65;;
22186;SDS011;11259;52.146;12.844;2023-08-06T08:33:51;1.75;;;1.48;;
22186;SDS011;11259;52.146;12.844;2023-08-06T08:36:16;2.28;;;1.80;;
22186;SDS011;11259;52.146;12.844;2023-08-06T08:38:42;1.98;;;1.63;;
22186;SDS011;11259;52.146;12.844;2023-08-06T08:41:09;1.98;;;1.77;;
22186;SDS011;11259;52.146;12.844;2023-08-06T08:43:36;1.80;;;1.60;;
22186;SDS011;11259;52.146;12.844;2023-08-06T08:46:02;1.77;;;1.50;;
22186;SDS011;11259;52.146;12.844;2023-08-06T08:48:29;1.52;;;1.40;;
22186;SDS011;11259;52.146;12.844;2023-08-06T08:50:54;2.30;;;1.70;;
22186;SDS011;11259;52.146;12.844;2023-08-06T08:53:20;1.40;;;1.20;;
22186;SDS011;11259;52.146;12.844;2023-08-06T08:55:47;1.88;;;1.30;;
22186;SDS011;11259;52.146;12.844;2023-08-06T08:58:13;2.53;;;1.67;;
22186;SDS011;11259;52.146;12.844;2023-08-06T09:00:40;1.67;;;1.45;;
22186;SDS011;11259;52.146;12.844;2023-08-06T09:03:07;1.45;;;1.35;;
22186;SDS011;11259;52.146;12.844;2023-08-06T09:05:32;1.85;;;1.35;;
22186;SDS011;11259;52.146;12.844;2023-08-06T09:07:59;1.85;;;1.48;;
22186;SDS011;11259;52.146;12.844;2023-08-06T09:10:27;1.95;;;1.65;;
22186;SDS011;11259;52.146;12.844;2023-08-06T09:12:53;1.52;;;1.42;;
22186;SDS011;11259;52.146;12.844;2023-08-06T09:15:18;2.22;;;1.55;;
22186;SDS011;11259;52.146;12.844;2023-08-06T09:17:45;2.85;;;1.50;;
22186;SDS011;11259;52.146;12.844;2023-08-06T09:20:11;2.33;;;1.90;;
22186;SDS011;11259;52.146;12.844;2023-08-06T09:22:37;1.88;;;1.55;;
22186;SDS011;11259;52.146;12.844;2023-08-06T09:25:02;1.30;;;1.15;;
22186;SDS011;11259;52.146;12.844;2023-08-06T09:27:28;2.05;;;1.52;;
22186;SDS011;11259;52.146;12.844;2023-08-06T09:29:54;2.10;;;1.83;;
22186;SDS011;11259;52.146;12.844;2023-08-06T09:32:19;2.58;;;1.75;;
22186;SDS011;11259;52.146;12.844;2023-08-06T09:34:46;1.23;;;1.13;;
22186;SDS011;11259;52.146;12.844;2023-08-06T09:37:11;1.83;;;1.35;;
22186;SDS011;11259;52.146;12.844;2023-08-06T09:39:38;1.83;;;1.73;;
22186;SDS011;11259;52.146;12.844;2023-08-06T09:42:04;2.72;;;1.88;;
22186;SDS011;11259;52.146;12.844;2023-08-06T09:44:30;1.67;;;1.38;;
22186;SDS011;11259;52.146;12.844;2023-08-06T09:46:56;1.65;;;1.25;;
22186;SDS011;11259;52.146;12.844;2023-08-06T09:49:25;1.83;;;1.50;;
22186;SDS011;11259;52.146;12.844;2023-08-06T09:51:52;1.30;;;1.20;;
22186;SDS011;11259;52.146;12.844;2023-08-06T09:54:17;2.10;;;1.90;;
22186;SDS011;11259;52.146;12.844;2023-08-06T09:56:43;1.20;;;1.10;;
22186;SDS011;11259;52.146;12.844;2023-08-06T09:59:08;4.00;;;1.50;;
22186;SDS011;11259;52.146;12.844;2023-08-06T10:01:34;1.90;;;1.40;;
22186;SDS011;11259;52.146;12.844;2023-08-06T10:04:01;1.17;;;1.08;;
22186;SDS011;11259;52.146;12.844;2023-08-06T10:06:28;1.40;;;1.20;;
22186;SDS011;11259;52.146;12.844;2023-08-06T10:08:55;1.70;;;1.60;;
22186;SDS011;11259;52.146;12.844;2023-08-06T10:11:21;1.83;;;1.42;;
22186;SDS011;11259;52.146;12.844;2023-08-06T10:13:47;1.40;;;1.30;;
22186;SDS011;11259;52.146;12.844;2023-08-06T10:16:12;1.38;;;1.20;;
22186;SDS011;11259;52.146;12.844;2023-08-06T10:18:38;1.60;;;1.33;;
22186;SDS011;11259;52.146;12.844;2023-08-06T10:21:04;2.15;;;1.45;;
22186;SDS011;11259;52.146;12.844;2023-08-06T10:23:33;1.60;;;1.50;;
22186;SDS011;11259;52.146;12.844;2023-08-06T10:26:00;1.92;;;1.50;;
22186;SDS011;11259;52.146;12.844;2023-08-06T10:28:30;1.67;;;1.58;;
22186;SDS011;11259;52.146;12.844;2023-08-06T10:30:59;1.63;;;1.52;;
22186;SDS011;11259;52.146;12.844;2023-08-06T10:33:24;1.38;;;1.27;;
22186;SDS011;11259;52.146;12.844;2023-08-06T10:36:05;1.52;;;1.42;;
22186;SDS011;11259;52.146;12.844;2023-08-06T10:38:33;2.42;;;1.30;;
22186;SDS011;11259;52.146;12.844;2023-08-06T10:41:02;1.67;;;1.20;;
22186;SDS011;11259;52.146;12.844;2023-08-06T10:43:28;1.42;;;1.33;;
22186;SDS011;11259;52.146;12.844;2023-08-06T10:45:55;1.77;;;1.63;;
22186;SDS011;11259;52.146;12.844;2023-08-06T10:48:28;2.63;;;1.70;;
22186;SDS011;11259;52.146;12.844;2023-08-06T10:50:54;2.05;;;1.85;;
22186;SDS011;11259;52.146;12.844;2023-08-06T10:53:20;2.42;;;1.98;;
22186;SDS011;11259;52.146;12.844;2023-08-06T10:55:46;1.42;;;1.23;;
22186;SDS011;11259;52.146;12.844;2023-08-06T10:58:13;3.78;;;2.33;;
22186;SDS011;11259;52.146;12.844;2023-08-06T11:00:40;2.30;;;1.50;;
22186;SDS011;11259;52.146;12.844;2023-08-06T11:03:05;1.83;;;1.65;;
22186;SDS011;11259;52.146;12.844;2023-08-06T11:05:30;1.90;;;1.73;;
22186;SDS011;11259;52.146;12.844;2023-08-06T11:07:56;3.35;;;1.65;;
22186;SDS011;11259;52.146;12.844;2023-08-06T11:10:21;2.40;;;1.75;;
22186;SDS011;11259;52.146;12.844;2023-08-06T11:12:46;2.35;;;1.92;;
22186;SDS011;11259;52.146;12.844;2023-08-06T11:15:13;2.05;;;1.85;;
22186;SDS011;11259;52.146;12.844;2023-08-06T11:17:39;2.85;;;1.80;;
22186;SDS011;11259;52.146;12.844;2023-08-06T11:20:06;1.60;;;1.17;;
22186;SDS011;11259;52.146;12.844;2023-08-06T11:22:32;2.25;;;2.03;;
22186;SDS011;11259;52.146;12.844;2023-08-06T11:24:57;3.00;;;1.65;;
22186;SDS011;11259;52.146;12.844;2023-08-06T11:27:22;1.85;;;1.70;;
22186;SDS011;11259;52.146;12.844;2023-08-06T11:29:48;1.92;;;1.73;;
22186;SDS011;11259;52.146;12.844;2023-08-06T11:32:14;1.70;;;1.48;;
22186;SDS011;11259;52.146;12.844;2023-08-06T11:34:40;1.73;;;1.52;;
22186;SDS011;11259;52.146;12.844;2023-08-06T11:37:05;1.90;;;1.70;;
22186;SDS011;11259;52.146;12.844;2023-08-06T11:39:32;2.10;;;1.38;;
22186;SDS011;11259;52.146;12.844;2023-08-06T11:41:57;1.55;;;1.45;;
22186;SDS011;11259;52.146;12.844;2023-08-06T11:44:23;1.52;;;1.42;;
22186;SDS011;11259;52.146;12.844;2023-08-06T11:46:51;2.70;;;1.88;;
22186;SDS011;11259;52.146;12.844;2023-08-06T11:49:18;1.60;;;1.35;;
22186;SDS011;11259;52.146;12.844;2023-08-06T11:51:44;2.67;;;1.95;;
22186;SDS011;11259;52.146;12.844;2023-08-06T11:54:10;1.52;;;1.33;;
22186;SDS011;11259;52.146;12.844;2023-08-06T11:56:35;1.30;;;1.20;;
22186;SDS011;11259;52.146;12.844;2023-08-06T11:59:00;1.67;;;1.15;;
22186;SDS011;11259;52.146;12.844;2023-08-06T12:01:26;1.58;;;1.35;;
22186;SDS011;11259;52.146;12.844;2023-08-06T12:03:51;1.95;;;1.75;;
22186;SDS011;11259;52.146;12.844;2023-08-06T12:06:18;3.45;;;1.95;;
22186;SDS011;11259;52.146;12.844;2023-08-06T12:08:43;2.15;;;1.90;;
22186;SDS011;11259;52.146;12.844;2023-08-06T12:11:08;2.17;;;1.48;;
22186;SDS011;11259;52.146;12.844;2023-08-06T12:13:34;2.15;;;1.70;;
22186;SDS011;11259;52.146;12.844;2023-08-06T12:15:59;1.27;;;1.08;;
22186;SDS011;11259;52.146;12.844;2023-08-06T12:18:24;2.58;;;2.08;;
22186;SDS011;11259;52.146;12.844;2023-08-06T12:20:50;3.13;;;1.40;;
22186;SDS011;11259;52.146;12.844;2023-08-06T12:23:16;1.58;;;1.42;;
22186;SDS011;11259;52.146;12.844;2023-08-06T12:25:42;1.30;;;1.20;;
22186;SDS011;11259;52.146;12.844;2023-08-06T12:28:07;1.88;;;1.20;;
22186;SDS011;11259;52.146;12.844;2023-08-06T12:30:33;1.73;;;1.30;;
22186;SDS011;11259;52.146;12.844;2023-08-06T12:32:58;2.17;;;1.77;;
22186;SDS011;11259;52.146;12.844;2023-08-06T12:35:23;1.88;;;1.70;;
22186;SDS011;11259;52.146;12.844;2023-08-06T12:37:49;2.85;;;2.00;;
22186;SDS011;11259;52.146;12.844;2023-08-06T12:40:16;1.80;;;1.60;;
22186;SDS011;11259;52.146;12.844;2023-08-06T12:42:41;2.35;;;1.75;;
22186;SDS011;11259;52.146;12.844;2023-08-06T12:45:07;2.72;;;2.00;;
22186;SDS011;11259;52.146;12.844;2023-08-06T12:47:32;2.50;;;1.90;;
22186;SDS011;11259;52.146;12.844;2023-08-06T12:49:58;2.97;;;1.83;;
22186;SDS011;11259;52.146;12.844;2023-08-06T12:52:23;2.15;;;1.55;;
22186;SDS011;11259;52.146;12.844;2023-08-06T12:54:48;2.83;;;2.10;;
22186;SDS011;11259;52.146;12.844;2023-08-06T12:57:15;1.75;;;1.40;;
22186;SDS011;11259;52.146;12.844;2023-08-06T12:59:40;2.40;;;1.95;;
22186;SDS011;11259;52.146;12.844;2023-08-06T13:02:06;2.38;;;1.92;;
22186;SDS011;11259;52.146;12.844;2023-08-06T13:04:31;2.85;;;1.55;;
22186;SDS011;11259;52.146;12.844;2023-08-06T13:06:56;4.95;;;1.95;;
22186;SDS011;11259;52.146;12.844;2023-08-06T13:09:22;1.35;;;1.25;;
22186;SDS011;11259;52.146;12.844;2023-08-06T13:11:47;4.60;;;2.28;;
22186;SDS011;11259;52.146;12.844;2023-08-06T13:14:14;1.50;;;1.40;;
22186;SDS011;11259;52.146;12.844;2023-08-06T13:16:41;2.80;;;1.98;;
22186;SDS011;11259;52.146;12.844;2023-08-06T13:19:07;1.95;;;1.40;;
22186;SDS011;11259;52.146;12.844;2023-08-06T13:21:32;2.22;;;2.03;;
22186;SDS011;11259;52.146;12.844;2023-08-06T13:23:59;2.00;;;1.80;;
22186;SDS011;11259;52.146;12.844;2023-08-06T13:26:24;1.70;;;1.50;;
22186;SDS011;11259;52.146;12.844;2023-08-06T13:28:50;2.05;;;1.80;;
22186;SDS011;11259;52.146;12.844;2023-08-06T13:31:16;1.75;;;1.60;;
22186;SDS011;11259;52.146;12.844;2023-08-06T13:33:42;2.33;;;1.80;;
22186;SDS011;11259;52.146;12.844;2023-08-06T13:36:07;2.00;;;1.80;;
22186;SDS011;11259;52.146;12.844;2023-08-06T13:38:32;1.30;;;1.00;;
22186;SDS011;11259;52.146;12.844;2023-08-06T13:40:57;2.53;;;1.67;;
22186;SDS011;11259;52.146;12.844;2023-08-06T13:43:24;1.60;;;1.50;;
22186;SDS011;11259;52.146;12.844;2023-08-06T13:45:49;1.83;;;1.20;;
22186;SDS011;11259;52.146;12.844;2023-08-06T13:48:16;1.25;;;1.15;;
22186;SDS011;11259;52.146;12.844;2023-08-06T13:50:41;1.13;;;1.02;;
22186;SDS011;11259;52.146;12.844;2023-08-06T13:53:06;1.75;;;1.38;;
22186;SDS011;11259;52.146;12.844;2023-08-06T13:55:31;3.47;;;1.40;;
22186;SDS011;11259;52.146;12.844;2023-08-06T13:57:57;1.65;;;1.20;;
22186;SDS011;11259;52.146;12.844;2023-08-06T14:00:22;1.20;;;1.10;;
22186;SDS011;11259;52.146;12.844;2023-08-06T14:02:47;1.48;;;1.27;;
22186;SDS011;11259;52.146;12.844;2023-08-06T14:05:14;1.85;;;1.25;;
22186;SDS011;11259;52.146;12.844;2023-08-06T14:07:39;3.60;;;1.27;;
22186;SDS011;11259;52.146;12.844;2023-08-06T14:10:05;0.93;;;0.93;;
22186;SDS011;11259;52.146;12.844;2023-08-06T14:12:31;1.30;;;1.20;;
22186;SDS011;11259;52.146;12.844;2023-08-06T14:14:57;1.67;;;1.40;;
22186;SDS011;11259;52.146;12.844;2023-08-06T14:17:22;1.50;;;1.40;;
22186;SDS011;11259;52.146;12.844;2023-08-06T14:19:47;1.40;;;1.17;;
22186;SDS011;11259;52.146;12.844;2023-08-06T14:22:14;1.30;;;1.10;;
22186;SDS011;11259;52.146;12.844;2023-08-06T14:24:39;1.80;;;1.55;;